Time;durP1;ratioP1;P1;durP2;ratioP2;P2;SDS_P1;SDS_P2;PMS_P1;PMS_P2;Temp;Humidity;BMP_temperature;BMP_pressure;BME280_temperature;BME280_humidity;BME280_pressure;Samples;Min_cycle;Max_cycle;Signal;HPM_P1;HPM_P2
2021/09/16 00:01:13;;;;;;;9.68;1.70;;;;;;;;;;5097260;28;20043;-68
2021/09/16 00:03:39;;;;;;;10.20;2.05;;;;;;;;;;5101077;28;20046;-68
2021/09/16 00:06:05;;;;;;;8.35;1.52;;;;;;;;;;5082129;28;20039;-68
2021/09/16 00:08:31;;;;;;;11.38;2.25;;;;;;;;;;5097333;28;20043;-68
2021/09/16 00:10:57;;;;;;;8.40;1.70;;;;;;;;;;5080008;28;20044;-68
2021/09/16 00:13:24;;;;;;;7.53;1.65;;;;;;;;;;5099370;28;20039;-68
2021/09/16 00:15:50;;;;;;;10.30;2.03;;;;;;;;;;5077756;28;20079;-68
2021/09/16 00:18:16;;;;;;;7.28;1.65;;;;;;;;;;5097607;28;20065;-67
2021/09/16 00:20:42;;;;;;;8.55;1.58;;;;;;;;;;5082911;28;20142;-68
2021/09/16 00:23:08;;;;;;;10.27;1.73;;;;;;;;;;5083154;28;20454;-68
2021/09/16 00:25:35;;;;;;;11.27;2.00;;;;;;;;;;5100923;28;20067;-68
2021/09/16 00:28:01;;;;;;;11.20;2.10;;;;;;;;;;5101402;28;20055;-68
2021/09/16 00:30:27;;;;;;;10.57;1.45;;;;;;;;;;5079804;28;20048;-68
2021/09/16 00:32:53;;;;;;;9.25;1.45;;;;;;;;;;5099282;28;20036;-68
2021/09/16 00:35:19;;;;;;;10.98;1.92;;;;;;;;;;5078370;28;20056;-68
2021/09/16 00:37:45;;;;;;;12.18;2.15;;;;;;;;;;5053955;28;20574;-68
2021/09/16 00:40:12;;;;;;;11.43;2.13;;;;;;;;;;5073942;28;20048;-68
2021/09/16 00:42:38;;;;;;;11.50;2.35;;;;;;;;;;5078484;28;20055;-68
2021/09/16 00:45:04;;;;;;;10.35;1.73;;;;;;;;;;5082104;28;20072;-68
2021/09/16 00:47:31;;;;;;;11.57;2.15;;;;;;;;;;5073910;28;20091;-67
2021/09/16 00:49:57;;;;;;;11.25;1.83;;;;;;;;;;5077708;28;20402;-68
2021/09/16 00:52:24;;;;;;;5.40;1.55;;;;;;;;;;5074232;28;20410;-68
2021/09/16 00:54:52;;;;;;;10.30;2.40;;;;;;;;;;5074776;28;20055;-68
2021/09/16 00:57:18;;;;;;;12.27;1.88;;;;;;;;;;5076646;28;20090;-68
2021/09/16 00:59:46;;;;;;;14.90;2.13;;;;;;;;;;5078020;28;20028;-68
2021/09/16 01:02:12;;;;;;;9.50;2.05;;;;;;;;;;5080420;28;20059;-68
2021/09/16 01:04:39;;;;;;;8.27;1.85;;;;;;;;;;5082035;28;20510;-68
2021/09/16 01:07:05;;;;;;;11.52;2.25;;;;;;;;;;5085232;28;21530;-68
2021/09/16 01:09:32;;;;;;;12.38;1.77;;;;;;;;;;5079634;28;20479;-68
2021/09/16 01:11:58;;;;;;;15.40;2.22;;;;;;;;;;5081229;28;20130;-68
2021/09/16 01:14:26;;;;;;;13.75;2.15;;;;;;;;;;5078385;28;20059;-68
2021/09/16 01:16:52;;;;;;;14.85;2.30;;;;;;;;;;5081313;28;20538;-68
2021/09/16 01:19:20;;;;;;;11.43;2.25;;;;;;;;;;5082300;28;20497;-68
2021/09/16 01:21:46;;;;;;;14.23;2.35;;;;;;;;;;5079709;28;20520;-68
2021/09/16 01:24:12;;;;;;;11.63;2.33;;;;;;;;;;5083011;28;20040;-68
2021/09/16 01:26:39;;;;;;;13.18;3.40;;;;;;;;;;5083449;28;20436;-68
2021/09/16 01:29:05;;;;;;;12.82;3.17;;;;;;;;;;5084811;28;20044;-68
2021/09/16 01:31:33;;;;;;;13.23;3.20;;;;;;;;;;5081000;28;20143;-68
2021/09/16 01:34:02;;;;;;;16.55;4.50;;;;;;;;;;5079790;28;20383;-68
2021/09/16 01:36:28;;;;;;;15.45;4.93;;;;;;;;;;5082416;28;20039;-68
2021/09/16 01:38:55;;;;;;;14.10;3.75;;;;;;;;;;5081061;28;20452;-68
2021/09/16 01:41:21;;;;;;;16.13;5.07;;;;;;;;;;5100749;28;20387;-68
2021/09/16 01:43:47;;;;;;;23.90;5.57;;;;;;;;;;5081678;28;20150;-68
2021/09/16 01:46:13;;;;;;;21.60;5.45;;;;;;;;;;5097875;28;20053;-67
2021/09/16 01:48:39;;;;;;;12.93;3.97;;;;;;;;;;5076088;28;20086;-68
2021/09/16 01:51:05;;;;;;;17.42;3.78;;;;;;;;;;5102074;28;20043;-67
2021/09/16 01:53:31;;;;;;;22.05;5.65;;;;;;;;;;5095231;28;20036;-67
2021/09/16 01:55:58;;;;;;;14.68;4.18;;;;;;;;;;5078470;28;20425;-67
2021/09/16 01:58:24;;;;;;;12.50;3.45;;;;;;;;;;5085860;28;20044;-68
2021/09/16 02:00:50;;;;;;;7.38;3.53;;;;;;;;;;5101834;28;20039;-68
2021/09/16 02:03:16;;;;;;;12.18;4.00;;;;;;;;;;5101681;28;20040;-68
2021/09/16 02:05:42;;;;;;;12.93;4.45;;;;;;;;;;5100371;28;20088;-68
2021/09/16 02:08:09;;;;;;;15.05;3.95;;;;;;;;;;5082109;28;20051;-68
2021/09/16 02:10:35;;;;;;;18.90;4.13;;;;;;;;;;5086312;28;20091;-68
2021/09/16 02:13:01;;;;;;;10.00;4.20;;;;;;;;;;5084657;28;20428;-68
2021/09/16 02:15:27;;;;;;;9.23;3.95;;;;;;;;;;5099822;28;20386;-68
2021/09/16 02:17:53;;;;;;;12.90;4.13;;;;;;;;;;5081971;28;20104;-68
2021/09/16 02:20:19;;;;;;;13.80;4.30;;;;;;;;;;5105746;28;20044;-68
2021/09/16 02:22:46;;;;;;;13.40;4.75;;;;;;;;;;5085632;28;20486;-68
2021/09/16 02:25:12;;;;;;;12.90;4.55;;;;;;;;;;5084012;28;20035;-68
2021/09/16 02:27:38;;;;;;;11.93;4.32;;;;;;;;;;5079693;28;20048;-68
2021/09/16 02:30:05;;;;;;;9.93;3.80;;;;;;;;;;5102588;28;20082;-68
2021/09/16 02:32:31;;;;;;;11.13;4.30;;;;;;;;;;5099592;28;20090;-68
2021/09/16 02:34:58;;;;;;;13.68;4.07;;;;;;;;;;5100017;28;20048;-68
2021/09/16 02:37:24;;;;;;;14.45;4.75;;;;;;;;;;5080012;28;20044;-68
2021/09/16 02:39:50;;;;;;;8.38;4.45;;;;;;;;;;5098735;28;20058;-68
2021/09/16 02:42:16;;;;;;;10.80;4.43;;;;;;;;;;5084636;28;20048;-68
2021/09/16 02:44:43;;;;;;;15.32;5.65;;;;;;;;;;5080591;28;20089;-68
2021/09/16 02:47:09;;;;;;;13.77;4.60;;;;;;;;;;5083647;28;20049;-68
2021/09/16 02:49:35;;;;;;;10.20;4.97;;;;;;;;;;5096411;28;20036;-68
2021/09/16 02:52:01;;;;;;;13.50;5.30;;;;;;;;;;5083400;28;20130;-68
2021/09/16 02:54:27;;;;;;;13.13;5.47;;;;;;;;;;5079891;28;20043;-68
2021/09/16 02:56:53;;;;;;;13.25;5.43;;;;;;;;;;5099023;28;20044;-68
2021/09/16 02:59:20;;;;;;;13.35;5.35;;;;;;;;;;5084306;28;20036;-68
2021/09/16 03:01:46;;;;;;;19.40;6.00;;;;;;;;;;5103892;28;20139;-68
2021/09/16 03:04:12;;;;;;;17.52;5.80;;;;;;;;;;5083446;28;20531;-68
2021/09/16 03:06:38;;;;;;;15.13;6.03;;;;;;;;;;5077118;28;20052;-68
2021/09/16 03:09:05;;;;;;;10.15;5.53;;;;;;;;;;5083209;28;20092;-68
2021/09/16 03:11:31;;;;;;;21.15;7.13;;;;;;;;;;5077517;28;20506;-67
2021/09/16 03:13:57;;;;;;;18.73;6.40;;;;;;;;;;5099594;28;20044;-68
2021/09/16 03:16:23;;;;;;;15.40;6.80;;;;;;;;;;5099589;28;20128;-68
2021/09/16 03:18:49;;;;;;;15.02;6.85;;;;;;;;;;5101739;28;20040;-68
2021/09/16 03:21:16;;;;;;;16.48;6.93;;;;;;;;;;5084496;28;20042;-68
2021/09/16 03:23:42;;;;;;;18.05;6.50;;;;;;;;;;5082765;28;20043;-68
2021/09/16 03:26:08;;;;;;;21.85;6.63;;;;;;;;;;5102781;28;20534;-68
2021/09/16 03:28:38;;;;;;;19.00;6.47;;;;;;;;;;5099988;28;20126;-68
2021/09/16 03:31:05;;;;;;;19.15;5.95;;;;;;;;;;5103183;28;20043;-68
2021/09/16 03:33:31;;;;;;;21.05;6.32;;;;;;;;;;5082185;28;20475;-68
2021/09/16 03:35:57;;;;;;;12.90;6.00;;;;;;;;;;5079257;28;20086;-68
2021/09/16 03:38:23;;;;;;;14.05;5.70;;;;;;;;;;5081371;28;20040;-68
2021/09/16 03:40:49;;;;;;;11.13;5.22;;;;;;;;;;5076082;28;20054;-68
2021/09/16 03:43:16;;;;;;;18.48;5.85;;;;;;;;;;5093558;28;20408;-68
2021/09/16 03:45:42;;;;;;;16.15;4.90;;;;;;;;;;5098659;28;20043;-68
2021/09/16 03:48:08;;;;;;;17.90;5.22;;;;;;;;;;5080930;28;20532;-68
2021/09/16 03:50:36;;;;;;;15.93;6.40;;;;;;;;;;5077481;28;20055;-68
2021/09/16 03:53:02;;;;;;;15.75;5.10;;;;;;;;;;5080766;28;20371;-68
2021/09/16 03:55:29;;;;;;;15.60;5.25;;;;;;;;;;5081207;28;20117;-68
2021/09/16 03:57:55;;;;;;;17.83;5.30;;;;;;;;;;5100705;28;20042;-68
2021/09/16 04:00:21;;;;;;;16.10;5.90;;;;;;;;;;5082646;28;20073;-68
2021/09/16 04:02:47;;;;;;;17.65;5.20;;;;;;;;;;5081135;28;20036;-68
2021/09/16 04:05:14;;;;;;;13.05;4.63;;;;;;;;;;5081985;28;20501;-68
2021/09/16 04:07:40;;;;;;;14.23;4.72;;;;;;;;;;5102578;28;20051;-68
2021/09/16 04:10:07;;;;;;;18.48;4.35;;;;;;;;;;5099286;28;20036;-68
2021/09/16 04:12:34;;;;;;;7.20;3.15;;;;;;;;;;5100311;28;20046;-68
2021/09/16 04:15:00;;;;;;;10.40;3.42;;;;;;;;;;5098442;28;20085;-68
2021/09/16 04:17:26;;;;;;;11.40;3.58;;;;;;;;;;5080549;28;20051;-68
2021/09/16 04:19:52;;;;;;;13.63;3.58;;;;;;;;;;5098850;28;20071;-68
2021/09/16 04:22:18;;;;;;;14.50;3.65;;;;;;;;;;5079595;28;20051;-68
2021/09/16 04:24:45;;;;;;;12.75;3.70;;;;;;;;;;5093964;28;20088;-68
2021/09/16 04:27:13;;;;;;;18.38;4.45;;;;;;;;;;5096951;28;20036;-68
2021/09/16 04:29:40;;;;;;;13.52;4.15;;;;;;;;;;5095589;28;20181;-68
2021/09/16 04:32:06;;;;;;;15.50;4.00;;;;;;;;;;5099645;28;20036;-68
2021/09/16 04:34:33;;;;;;;14.23;4.13;;;;;;;;;;5080307;28;21589;-68
2021/09/16 04:36:59;;;;;;;12.75;4.43;;;;;;;;;;5097221;28;20310;-68
2021/09/16 04:39:25;;;;;;;17.30;4.45;;;;;;;;;;5079683;28;20044;-70
2021/09/16 04:41:51;;;;;;;11.80;3.72;;;;;;;;;;5104382;28;20035;-68
2021/09/16 04:44:17;;;;;;;10.77;3.78;;;;;;;;;;5100748;28;20047;-68
2021/09/16 04:46:44;;;;;;;13.55;4.05;;;;;;;;;;5086882;28;20051;-68
2021/09/16 04:49:10;;;;;;;13.07;3.60;;;;;;;;;;5106586;28;20135;-68
2021/09/16 04:51:36;;;;;;;12.20;4.25;;;;;;;;;;5088227;28;20044;-68
2021/09/16 04:54:02;;;;;;;12.45;3.53;;;;;;;;;;5083715;28;20058;-68
2021/09/16 04:56:28;;;;;;;17.23;4.13;;;;;;;;;;5100319;28;20623;-68
2021/09/16 04:58:55;;;;;;;12.63;3.30;;;;;;;;;;5084653;28;20071;-68
2021/09/16 05:01:21;;;;;;;15.25;3.55;;;;;;;;;;5085061;28;20499;-67
2021/09/16 05:03:47;;;;;;;11.32;3.67;;;;;;;;;;5090281;28;20116;-68
2021/09/16 05:06:13;;;;;;;14.70;4.22;;;;;;;;;;5065659;28;20043;-68
2021/09/16 05:08:42;;;;;;;13.18;3.88;;;;;;;;;;5104521;28;20135;-68
2021/09/16 05:11:08;;;;;;;11.40;3.58;;;;;;;;;;5087225;28;20092;-68
2021/09/16 05:13:35;;;;;;;12.55;3.92;;;;;;;;;;5085264;28;20078;-68
2021/09/16 05:16:01;;;;;;;13.82;3.45;;;;;;;;;;5085175;28;20055;-68
2021/09/16 05:18:27;;;;;;;15.73;3.65;;;;;;;;;;5099309;28;20040;-68
2021/09/16 05:20:53;;;;;;;13.52;3.50;;;;;;;;;;5066117;28;20050;-68
2021/09/16 05:23:19;;;;;;;11.15;3.83;;;;;;;;;;5082457;28;20097;-67
2021/09/16 05:25:45;;;;;;;15.23;4.28;;;;;;;;;;5100370;28;20410;-68
2021/09/16 05:28:12;;;;;;;16.05;3.70;;;;;;;;;;5083863;28;20075;-69
2021/09/16 05:30:38;;;;;;;13.25;4.28;;;;;;;;;;5084008;28;20463;-68
2021/09/16 05:33:09;;;;;;;13.10;3.95;;;;;;;;;;5101032;28;20090;-69
2021/09/16 05:35:36;;;;;;;13.27;3.85;;;;;;;;;;5106008;28;20051;-69
2021/09/16 05:38:03;;;;;;;20.13;4.30;;;;;;;;;;5100306;28;20096;-69
2021/09/16 05:40:29;;;;;;;17.60;4.40;;;;;;;;;;5109293;28;20494;-69
2021/09/16 05:42:55;;;;;;;14.65;4.00;;;;;;;;;;5101659;28;20115;-68
2021/09/16 05:45:21;;;;;;;17.80;3.63;;;;;;;;;;5088210;28;20075;-69
2021/09/16 05:47:47;;;;;;;17.27;4.65;;;;;;;;;;5101592;28;20043;-69
2021/09/16 05:50:14;;;;;;;17.17;4.00;;;;;;;;;;5084239;28;20364;-69
2021/09/16 05:52:40;;;;;;;12.88;4.07;;;;;;;;;;5100981;28;20105;-68
2021/09/16 05:55:09;;;;;;;13.82;4.75;;;;;;;;;;5097387;28;20436;-70
2021/09/16 05:57:35;;;;;;;16.30;4.72;;;;;;;;;;5081237;28;20088;-70
2021/09/16 06:00:01;;;;;;;16.38;4.50;;;;;;;;;;5083301;28;20052;-70
2021/09/16 06:02:27;;;;;;;17.92;4.95;;;;;;;;;;5094459;28;20040;-70
2021/09/16 06:04:53;;;;;;;17.67;4.28;;;;;;;;;;5075915;28;20089;-69
2021/09/16 06:07:20;;;;;;;15.25;4.93;;;;;;;;;;5089294;28;20147;-68
2021/09/16 06:09:46;;;;;;;9.10;3.83;;;;;;;;;;5081783;28;20220;-69
2021/09/16 06:12:12;;;;;;;21.02;4.35;;;;;;;;;;5105839;28;20062;-68
2021/09/16 06:14:38;;;;;;;16.20;4.40;;;;;;;;;;5097209;28;20054;-69
2021/09/16 06:17:05;;;;;;;19.23;5.00;;;;;;;;;;5101732;28;20070;-69
2021/09/16 06:19:31;;;;;;;16.27;4.20;;;;;;;;;;5084632;28;20055;-69
2021/09/16 06:21:57;;;;;;;14.13;4.28;;;;;;;;;;5065788;28;20480;-69
2021/09/16 06:24:23;;;;;;;16.77;4.43;;;;;;;;;;5110429;28;20050;-69
2021/09/16 06:26:49;;;;;;;12.25;4.75;;;;;;;;;;5097698;28;20047;-69
2021/09/16 06:29:16;;;;;;;13.98;5.38;;;;;;;;;;5088178;28;20371;-69
2021/09/16 06:31:42;;;;;;;16.15;4.80;;;;;;;;;;5101612;28;20421;-69
2021/09/16 06:34:08;;;;;;;17.63;4.70;;;;;;;;;;5036545;28;1177992;-69
2021/09/16 06:36:34;;;;;;;18.33;5.10;;;;;;;;;;5049455;28;20057;-69
2021/09/16 06:39:00;;;;;;;16.25;4.70;;;;;;;;;;5073303;28;20476;-69
2021/09/16 06:41:27;;;;;;;17.15;4.20;;;;;;;;;;5091301;28;20036;-69
2021/09/16 06:43:53;;;;;;;18.35;3.65;;;;;;;;;;5068322;28;20135;-69
2021/09/16 06:46:19;;;;;;;9.23;3.42;;;;;;;;;;5066689;28;20490;-69
2021/09/16 06:48:45;;;;;;;10.02;3.08;;;;;;;;;;5085726;28;20044;-69
2021/09/16 06:51:11;;;;;;;18.15;4.18;;;;;;;;;;5078874;28;20491;-69
2021/09/16 06:53:37;;;;;;;12.35;4.28;;;;;;;;;;5066125;28;20048;-69
2021/09/16 06:56:04;;;;;;;15.77;3.67;;;;;;;;;;5086468;28;20094;-69
2021/09/16 06:58:30;;;;;;;11.30;3.55;;;;;;;;;;5082266;28;20040;-69
2021/09/16 07:00:57;;;;;;;9.70;3.10;;;;;;;;;;5068192;28;20039;-69
2021/09/16 07:03:23;;;;;;;12.82;3.85;;;;;;;;;;5065552;28;20044;-69
2021/09/16 07:05:49;;;;;;;13.52;3.00;;;;;;;;;;5064191;28;20087;-69
2021/09/16 07:08:15;;;;;;;18.27;3.75;;;;;;;;;;5084354;28;20529;-69
2021/09/16 07:10:41;;;;;;;17.52;3.63;;;;;;;;;;5051036;28;20395;-69
2021/09/16 07:13:08;;;;;;;7.80;2.80;;;;;;;;;;5082452;28;20044;-69
2021/09/16 07:15:34;;;;;;;14.73;3.47;;;;;;;;;;5061135;28;20067;-68
2021/09/16 07:18:01;;;;;;;18.67;3.83;;;;;;;;;;5059329;28;20100;-69
2021/09/16 07:20:27;;;;;;;15.30;3.42;;;;;;;;;;5074301;28;20503;-69
2021/09/16 07:22:53;;;;;;;16.20;3.90;;;;;;;;;;5087189;28;20048;-69
2021/09/16 07:25:19;;;;;;;11.35;3.22;;;;;;;;;;5079059;28;20059;-69
2021/09/16 07:27:47;;;;;;;14.95;3.28;;;;;;;;;;5057235;28;20123;-69
2021/09/16 07:30:14;;;;;;;13.07;3.13;;;;;;;;;;5069956;28;20074;-69
2021/09/16 07:32:40;;;;;;;12.00;3.70;;;;;;;;;;5068723;28;20559;-69
2021/09/16 07:35:07;;;;;;;14.63;3.17;;;;;;;;;;5076594;28;20056;-69
2021/09/16 07:37:33;;;;;;;14.60;3.45;;;;;;;;;;5078034;28;20041;-68
2021/09/16 07:40:00;;;;;;;12.38;2.92;;;;;;;;;;5085811;28;20080;-69
2021/09/16 07:42:27;;;;;;;13.27;3.53;;;;;;;;;;5083067;28;20127;-69
2021/09/16 07:44:53;;;;;;;18.85;4.30;;;;;;;;;;5085873;28;20047;-69
2021/09/16 07:47:19;;;;;;;11.20;2.88;;;;;;;;;;5084965;28;20067;-68
2021/09/16 07:49:47;;;;;;;15.77;3.25;;;;;;;;;;5076014;28;20047;-69
2021/09/16 07:52:13;;;;;;;11.45;3.13;;;;;;;;;;5079646;28;20059;-69
2021/09/16 07:54:39;;;;;;;15.55;3.20;;;;;;;;;;5079516;28;20495;-69
2021/09/16 07:57:06;;;;;;;10.70;2.72;;;;;;;;;;5083987;28;20122;-69
2021/09/16 07:59:32;;;;;;;16.80;2.75;;;;;;;;;;5080355;28;20045;-69
2021/09/16 08:01:58;;;;;;;13.75;2.65;;;;;;;;;;5079344;28;20059;-69
2021/09/16 08:04:25;;;;;;;10.60;3.50;;;;;;;;;;5081249;28;20421;-69
2021/09/16 08:06:51;;;;;;;13.43;2.75;;;;;;;;;;5083847;28;20128;-69
2021/09/16 08:09:17;;;;;;;10.77;2.95;;;;;;;;;;5083735;28;20047;-69
2021/09/16 08:11:43;;;;;;;9.32;3.08;;;;;;;;;;5079217;28;20049;-68
2021/09/16 08:14:10;;;;;;;9.95;2.90;;;;;;;;;;5079075;28;20051;-68
2021/09/16 08:16:36;;;;;;;11.48;2.88;;;;;;;;;;5083113;28;20051;-69
2021/09/16 08:19:03;;;;;;;13.98;2.42;;;;;;;;;;5081540;28;20040;-69
2021/09/16 08:21:29;;;;;;;15.95;2.47;;;;;;;;;;5083024;28;20088;-68
2021/09/16 08:23:56;;;;;;;18.00;2.63;;;;;;;;;;5082917;28;20054;-69
2021/09/16 08:26:22;;;;;;;9.27;2.17;;;;;;;;;;5085338;28;20048;-69
2021/09/16 08:28:49;;;;;;;11.95;2.88;;;;;;;;;;5083672;28;20055;-68
2021/09/16 08:31:15;;;;;;;9.13;2.08;;;;;;;;;;5078289;28;20089;-69
2021/09/16 08:33:41;;;;;;;10.13;2.22;;;;;;;;;;5082116;28;20064;-69
2021/09/16 08:36:10;;;;;;;12.40;2.25;;;;;;;;;;5090300;28;20051;-69
2021/09/16 08:38:36;;;;;;;9.80;2.03;;;;;;;;;;5061272;28;20098;-69
2021/09/16 08:41:03;;;;;;;10.27;2.42;;;;;;;;;;5081189;28;20097;-69
2021/09/16 08:43:30;;;;;;;9.00;2.22;;;;;;;;;;5090293;28;20075;-69
2021/09/16 08:45:57;;;;;;;7.30;1.98;;;;;;;;;;5086757;28;20101;-69
2021/09/16 08:48:23;;;;;;;8.25;2.20;;;;;;;;;;5066151;28;20109;-69
2021/09/16 08:50:49;;;;;;;9.60;2.25;;;;;;;;;;5070547;28;20052;-69
2021/09/16 08:53:20;;;;;;;8.77;1.77;;;;;;;;;;5082559;28;20086;-69
2021/09/16 08:55:47;;;;;;;8.93;2.63;;;;;;;;;;5087831;28;20127;-69
2021/09/16 08:58:14;;;;;;;7.72;2.33;;;;;;;;;;5088932;28;20048;-69
2021/09/16 09:00:41;;;;;;;9.55;1.95;;;;;;;;;;5062941;28;20506;-69
2021/09/16 09:03:07;;;;;;;9.77;2.25;;;;;;;;;;5089382;28;20059;-69
2021/09/16 09:05:33;;;;;;;8.10;2.10;;;;;;;;;;5078308;28;20116;-69
2021/09/16 09:08:01;;;;;;;8.60;1.80;;;;;;;;;;5068656;28;20109;-69
2021/09/16 09:10:33;;;;;;;8.98;2.55;;;;;;;;;;5090083;28;20043;-69
2021/09/16 09:12:59;;;;;;;5.45;1.63;;;;;;;;;;5068572;28;20090;-69
2021/09/16 09:15:25;;;;;;;11.68;2.25;;;;;;;;;;5089646;28;20052;-69
2021/09/16 09:18:03;;;;;;;8.73;2.35;;;;;;;;;;5071746;28;20176;-69
2021/09/16 09:20:29;;;;;;;10.60;2.78;;;;;;;;;;5070822;28;20387;-71
2021/09/16 09:22:55;;;;;;;6.43;2.13;;;;;;;;;;5065673;28;20059;-71
2021/09/16 09:25:23;;;;;;;12.38;2.03;;;;;;;;;;5068427;28;20032;-70
2021/09/16 09:27:51;;;;;;;5.13;1.60;;;;;;;;;;5067374;28;20101;-69
2021/09/16 09:30:19;;;;;;;8.90;2.13;;;;;;;;;;5090319;28;20071;-69
2021/09/16 09:32:49;;;;;;;6.55;1.83;;;;;;;;;;5066963;28;20056;-69
2021/09/16 09:35:23;;;;;;;10.45;2.13;;;;;;;;;;5082325;28;20089;-69
2021/09/16 09:37:50;;;;;;;9.38;2.50;;;;;;;;;;5086621;28;20077;-70
2021/09/16 09:40:24;;;;;;;12.30;2.30;;;;;;;;;;5078270;28;20128;-69
2021/09/16 09:42:50;;;;;;;8.52;2.00;;;;;;;;;;5083782;28;20040;-69
2021/09/16 09:45:16;;;;;;;7.65;2.38;;;;;;;;;;5088589;28;20052;-69
2021/09/16 09:47:44;;;;;;;9.15;2.00;;;;;;;;;;5080794;28;20036;-69
2021/09/16 09:50:24;;;;;;;12.32;2.03;;;;;;;;;;5087772;28;20085;-69
2021/09/16 09:52:51;;;;;;;9.38;2.22;;;;;;;;;;5083703;28;20036;-69
2021/09/16 09:55:19;;;;;;;11.15;2.20;;;;;;;;;;5090727;28;20068;-69
2021/09/16 09:57:45;;;;;;;10.25;1.83;;;;;;;;;;5084955;28;20036;-69
2021/09/16 10:00:14;;;;;;;9.38;2.47;;;;;;;;;;5085030;28;20063;-69
2021/09/16 10:02:43;;;;;;;9.27;2.00;;;;;;;;;;5085787;28;20071;-69
2021/09/16 10:05:21;;;;;;;21.15;3.42;;;;;;;;;;5085674;28;20100;-70
2021/09/16 10:07:47;;;;;;;6.50;1.50;;;;;;;;;;5085456;28;20052;-69
2021/09/16 10:10:14;;;;;;;8.75;2.75;;;;;;;;;;5083009;28;20036;-69
2021/09/16 10:12:41;;;;;;;8.18;1.80;;;;;;;;;;5080364;28;20071;-69
2021/09/16 10:15:11;;;;;;;10.52;2.03;;;;;;;;;;5085517;28;20047;-69
2021/09/16 10:17:38;;;;;;;7.10;2.25;;;;;;;;;;5083536;28;20132;-69
2021/09/16 10:20:06;;;;;;;12.80;2.45;;;;;;;;;;5078725;28;20115;-69
2021/09/16 10:22:32;;;;;;;9.90;2.13;;;;;;;;;;5081912;28;20051;-70
2021/09/16 10:24:58;;;;;;;7.05;1.95;;;;;;;;;;5084710;28;20399;-70
2021/09/16 10:27:32;;;;;;;8.73;2.50;;;;;;;;;;5087712;28;20089;-69
2021/09/16 10:29:59;;;;;;;9.80;2.38;;;;;;;;;;5085513;28;20036;-69
2021/09/16 10:32:29;;;;;;;9.38;2.42;;;;;;;;;;5082804;28;20040;-69
2021/09/16 10:34:58;;;;;;;9.20;2.55;;;;;;;;;;5086923;28;20045;-70
2021/09/16 10:37:25;;;;;;;11.45;2.15;;;;;;;;;;5082296;28;20055;-70
2021/09/16 10:39:51;;;;;;;10.07;1.83;;;;;;;;;;5109145;28;20444;-69
2021/09/16 10:42:18;;;;;;;12.18;2.83;;;;;;;;;;5104543;28;20036;-69
2021/09/16 10:44:45;;;;;;;7.57;1.98;;;;;;;;;;5080805;28;20079;-69
2021/09/16 10:47:16;;;;;;;6.50;2.03;;;;;;;;;;5090880;28;20047;-69
2021/09/16 10:49:42;;;;;;;7.35;1.92;;;;;;;;;;5106071;28;20122;-70
2021/09/16 10:52:09;;;;;;;6.90;1.98;;;;;;;;;;5087345;28;20122;-69
2021/09/16 10:54:38;;;;;;;10.73;1.73;;;;;;;;;;5104588;28;20051;-69
2021/09/16 10:57:05;;;;;;;11.20;2.67;;;;;;;;;;5084286;28;20442;-69
2021/09/16 10:59:53;;;;;;;6.13;1.73;;;;;;;;;;5084417;28;20116;-69
2021/09/16 11:02:22;;;;;;;5.72;1.75;;;;;;;;;;5084085;28;20134;-68
2021/09/16 11:04:56;;;;;;;6.53;1.92;;;;;;;;;;5087124;28;20045;-68
2021/09/16 11:07:33;;;;;;;7.95;2.15;;;;;;;;;;5089864;28;20073;-68
2021/09/16 11:10:16;;;;;;;6.32;1.55;;;;;;;;;;5106965;28;20043;-68
2021/09/16 11:12:44;;;;;;;8.45;2.20;;;;;;;;;;5110962;28;20159;-68
2021/09/16 11:15:11;;;;;;;11.07;2.05;;;;;;;;;;5110084;28;20165;-68
2021/09/16 11:17:38;;;;;;;10.32;1.85;;;;;;;;;;5093825;28;20391;-68
2021/09/16 11:20:05;;;;;;;7.55;2.20;;;;;;;;;;5103472;28;20053;-68
2021/09/16 11:22:31;;;;;;;6.85;1.70;;;;;;;;;;5110232;28;20050;-69
2021/09/16 11:24:58;;;;;;;5.90;2.00;;;;;;;;;;5085370;28;20138;-69
2021/09/16 11:27:26;;;;;;;5.68;1.38;;;;;;;;;;5107957;28;20075;-68
2021/09/16 11:29:52;;;;;;;7.70;1.60;;;;;;;;;;5109177;28;20044;-69
2021/09/16 11:32:18;;;;;;;5.47;1.38;;;;;;;;;;5102850;28;20070;-69
2021/09/16 11:34:52;;;;;;;4.07;1.40;;;;;;;;;;5109435;28;20058;-69
2021/09/16 11:37:22;;;;;;;5.82;1.40;;;;;;;;;;5089636;28;20044;-69
2021/09/16 11:39:56;;;;;;;6.10;1.73;;;;;;;;;;5107523;28;20048;-69
2021/09/16 11:42:22;;;;;;;5.35;1.55;;;;;;;;;;5107849;28;20087;-68
2021/09/16 11:44:58;;;;;;;6.20;1.30;;;;;;;;;;5084530;28;20051;-68
2021/09/16 11:47:25;;;;;;;5.55;1.35;;;;;;;;;;5104609;28;20067;-68
2021/09/16 11:49:51;;;;;;;7.22;1.60;;;;;;;;;;5100837;28;20507;-69
2021/09/16 11:52:19;;;;;;;5.70;1.70;;;;;;;;;;5101509;28;20567;-68
2021/09/16 11:55:05;;;;;;;8.27;1.88;;;;;;;;;;5077232;28;20043;-68
2021/09/16 11:57:31;;;;;;;4.82;1.30;;;;;;;;;;5074205;28;20483;-68
2021/09/16 11:59:57;;;;;;;5.95;1.42;;;;;;;;;;5099374;28;20487;-70
2021/09/16 12:02:23;;;;;;;6.80;1.50;;;;;;;;;;5084518;28;20051;-69
2021/09/16 12:04:50;;;;;;;6.15;1.45;;;;;;;;;;5078213;28;20062;-69
2021/09/16 12:07:16;;;;;;;7.40;1.35;;;;;;;;;;5076524;28;20078;-69
2021/09/16 12:09:43;;;;;;;3.17;1.15;;;;;;;;;;5099386;28;20560;-68
2021/09/16 12:12:09;;;;;;;5.25;1.52;;;;;;;;;;5077713;28;20375;-68
2021/09/16 12:14:36;;;;;;;7.80;1.40;;;;;;;;;;5098973;28;20514;-68
2021/09/16 12:17:03;;;;;;;3.45;1.05;;;;;;;;;;5079081;28;20047;-68
2021/09/16 12:19:30;;;;;;;5.63;1.40;;;;;;;;;;5101456;28;20435;-68
2021/09/16 12:21:56;;;;;;;4.53;1.45;;;;;;;;;;5101878;28;20394;-69
2021/09/16 12:24:29;;;;;;;3.88;0.80;;;;;;;;;;5099356;28;20039;-69
2021/09/16 12:26:56;;;;;;;4.75;0.90;;;;;;;;;;5096380;28;20043;-68
2021/09/16 12:29:24;;;;;;;7.00;1.02;;;;;;;;;;5077412;28;20135;-68
2021/09/16 12:31:54;;;;;;;3.72;1.05;;;;;;;;;;5095053;28;20135;-68
2021/09/16 12:34:20;;;;;;;5.45;1.08;;;;;;;;;;5096264;28;20037;-69
2021/09/16 12:36:53;;;;;;;4.38;1.13;;;;;;;;;;5079990;28;20071;-68
2021/09/16 12:39:19;;;;;;;4.45;1.17;;;;;;;;;;5082188;28;20156;-68
2021/09/16 12:41:49;;;;;;;5.90;1.00;;;;;;;;;;5079302;28;20085;-69
2021/09/16 12:44:17;;;;;;;5.68;1.20;;;;;;;;;;5083460;28;20035;-68
2021/09/16 12:46:46;;;;;;;4.88;1.08;;;;;;;;;;5083366;28;20035;-69
2021/09/16 12:49:23;;;;;;;4.07;1.02;;;;;;;;;;5097143;28;20040;-69
2021/09/16 12:51:54;;;;;;;8.85;1.50;;;;;;;;;;5077730;28;20052;-69
2021/09/16 12:54:21;;;;;;;3.22;1.08;;;;;;;;;;5078017;28;20108;-69
2021/09/16 12:56:49;;;;;;;3.20;1.17;;;;;;;;;;5077416;28;20070;-69
2021/09/16 12:59:17;;;;;;;3.05;1.10;;;;;;;;;;5077030;28;20378;-69
2021/09/16 13:01:46;;;;;;;5.45;1.40;;;;;;;;;;5079597;28;20062;-69
2021/09/16 13:04:12;;;;;;;4.00;1.45;;;;;;;;;;5083242;28;20245;-69
2021/09/16 13:06:38;;;;;;;5.13;1.30;;;;;;;;;;5099375;28;20541;-68
2021/09/16 13:09:04;;;;;;;6.07;1.70;;;;;;;;;;5099272;28;20122;-68
2021/09/16 13:11:31;;;;;;;4.93;1.40;;;;;;;;;;5082041;28;20059;-69
2021/09/16 13:14:05;;;;;;;4.57;1.55;;;;;;;;;;5081502;28;20040;-68
2021/09/16 13:16:32;;;;;;;4.32;1.20;;;;;;;;;;5086825;28;20070;-68
2021/09/16 13:18:58;;;;;;;7.68;1.38;;;;;;;;;;5102913;28;20031;-68
2021/09/16 13:21:25;;;;;;;6.70;1.58;;;;;;;;;;5085320;28;20123;-68
2021/09/16 13:23:51;;;;;;;6.22;1.38;;;;;;;;;;5084352;28;20048;-68
2021/09/16 13:26:17;;;;;;;10.50;2.08;;;;;;;;;;5095165;28;20053;-68
2021/09/16 13:28:43;;;;;;;5.00;1.50;;;;;;;;;;5088658;28;20082;-68
2021/09/16 13:31:09;;;;;;;6.28;1.55;;;;;;;;;;5101674;28;20421;-69
2021/09/16 13:33:36;;;;;;;6.35;1.55;;;;;;;;;;5104301;28;20108;-67
2021/09/16 13:36:02;;;;;;;6.03;1.75;;;;;;;;;;5100076;28;20132;-68
2021/09/16 13:38:28;;;;;;;4.95;1.70;;;;;;;;;;5083397;28;20165;-68
2021/09/16 13:40:54;;;;;;;7.93;1.77;;;;;;;;;;5082019;28;20180;-69
2021/09/16 13:43:20;;;;;;;5.00;1.38;;;;;;;;;;5080222;28;20046;-68
2021/09/16 13:45:47;;;;;;;4.82;1.38;;;;;;;;;;5081436;28;20039;-68
2021/09/16 13:48:14;;;;;;;7.10;1.60;;;;;;;;;;5087910;28;20387;-68
2021/09/16 13:50:41;;;;;;;4.70;1.40;;;;;;;;;;5081145;28;20495;-68
2021/09/16 13:53:08;;;;;;;4.97;1.33;;;;;;;;;;5102577;28;20340;-68
2021/09/16 13:55:34;;;;;;;5.35;2.08;;;;;;;;;;5085827;28;20043;-68
2021/09/16 13:58:00;;;;;;;10.30;2.17;;;;;;;;;;5101236;28;20055;-69
2021/09/16 14:00:27;;;;;;;3.65;1.42;;;;;;;;;;5102922;28;20344;-68
2021/09/16 14:02:53;;;;;;;4.35;1.48;;;;;;;;;;5082483;28;20063;-68
2021/09/16 14:05:19;;;;;;;7.40;1.50;;;;;;;;;;5101540;28;20067;-68
2021/09/16 14:07:45;;;;;;;9.05;1.80;;;;;;;;;;5082606;28;20036;-68
2021/09/16 14:10:12;;;;;;;4.47;1.52;;;;;;;;;;5100762;28;20036;-68
2021/09/16 14:12:39;;;;;;;4.10;1.60;;;;;;;;;;5102632;28;20079;-68
2021/09/16 14:15:06;;;;;;;5.03;1.75;;;;;;;;;;5102934;28;20046;-68
2021/09/16 14:17:32;;;;;;;8.25;2.08;;;;;;;;;;5100957;28;20134;-68
2021/09/16 14:19:58;;;;;;;6.65;2.10;;;;;;;;;;5077692;28;20048;-68
2021/09/16 14:22:25;;;;;;;7.22;1.50;;;;;;;;;;5100550;28;20040;-68
2021/09/16 14:24:51;;;;;;;6.05;1.80;;;;;;;;;;5103181;28;20124;-68
2021/09/16 14:27:18;;;;;;;8.70;1.90;;;;;;;;;;5093196;28;20062;-68
2021/09/16 14:29:46;;;;;;;5.15;1.90;;;;;;;;;;5099709;28;20417;-68
2021/09/16 14:32:13;;;;;;;4.85;1.67;;;;;;;;;;5072861;28;20040;-68
2021/09/16 14:34:39;;;;;;;3.20;1.63;;;;;;;;;;5081505;28;20044;-68